Flight Track Log - Related Links

Times and Time Zones

All times are in EDT time to prevent confusion due to time zone crossing. See the N775NC flight status page for this flight to view local times or setup timezone preferences in your user account.

Time Position Orientation Groundspeed Altitude Reporting Facility
EDT Latitude Longitude Course Direction KTS MPH feet Rate Location/Type
Sun 10:36:18 AM 30.4856 -84.3703 344° North 225 259 2,200  Level Jacksonville Center
Sun 10:37:18 AM 30.5461 -84.3783 353° North 232 267 4,300 2,300 Climbing Jacksonville Center
Sun 10:38:18 AM 30.6169 -84.3917 351° North 238 274 6,800 2,350 Climbing Jacksonville Center
Sun 10:39:18 AM 30.6875 -84.4242 338° Northwest 251 289 9,000 2,000 Climbing Jacksonville Center
Sun 10:40:18 AM 30.7622 -84.4544 341° North 270 311 10,800 1,500 Climbing Jacksonville Center
Sun 10:41:00 AM 30.9431 -84.3635 344° North  Level Estimated
Sun 10:41:18 AM 30.8514 -84.4944 339° North 299 344 12,000  Level Jacksonville Center
Sun 10:42:18 AM 30.9533 -84.5228 347° North 338 389 13,500 1,800 Climbing Jacksonville Center
Sun 10:43:18 AM 31.0617 -84.5467 349° North 370 426 15,600 2,000 Climbing Jacksonville Center
Sun 10:44:18 AM 31.1719 -84.5753 347° North 390 449 17,500 1,750 Climbing Jacksonville Center
Sun 10:45:18 AM 31.2864 -84.6089 346° North 403 464 19,100 1,650 Climbing Jacksonville Center
Sun 10:46:18 AM 31.3964 -84.6619 338° Northwest 408 470 20,800 1,450 Climbing Jacksonville Center
Sun 10:47:18 AM 31.5064 -84.7056 341° North 419 482 22,000 533 Climbing Jacksonville Center
Sun 10:48:33 AM 31.6569 -84.7633 342° North 455 524 22,000  Level Atlanta Center
Sun 10:49:33 AM 31.7797 -84.8083 343° North 461 531 22,000  Level Atlanta Center
Sun 10:50:33 AM 31.9025 -84.8486 344° North 456 525 22,000  Level Atlanta Center
Sun 10:51:33 AM 32.0233 -84.8986 341° North 456 525 22,000  Level Atlanta Center
Sun 10:52:33 AM 32.1442 -84.9392 344° North 456 525 22,000  Level Atlanta Center
Sun 10:53:33 AM 32.2397 -84.9719 344° North 456 525 22,000  Level Atlanta Center
Sun 10:54:33 AM 32.3647 -85.0078 346° North 437 503 22,000  Level Atlanta Center
Sun 10:55:33 AM 32.4647 -85.0358 347° North 399 459 22,000  Level Atlanta Center
Sun 10:56:33 AM 32.5753 -85.0519 353° North 393 452 22,000 -350 Level Atlanta Center
Sun 10:57:33 AM 32.6772 -85.0853 345° North 382 440 21,300 -1,100 Descending Atlanta Center
Sun 10:58:33 AM 32.7958 -85.1361 340° North 394 453 19,800 -950 Descending Atlanta Center
Sun 10:59:33 AM 32.8978 -85.1644 347° North 388 447 19,400 -1,000 Descending Atlanta Center
Sun 11:00:33 AM 32.9956 -85.1931 346° North 370 426 17,800 -1,900 Descending Atlanta Center
Sun 11:01:33 AM 33.0856 -85.1792 North 357 411 15,600 -1,750 Descending Atlanta Center
Sun 11:02:33 AM 33.1492 -85.0833 52° Northeast 321 369 14,300 -1,050 Descending Atlanta Center
Sun 11:03:33 AM 33.2125 -84.9897 51° Northeast 334 384 13,500 -900 Descending Atlanta Center
Sun 11:04:33 AM 33.2778 -84.9036 48° Northeast 349 402 12,500 -800 Descending Atlanta Center
Sun 11:05:33 AM 33.3389 -84.8122 51° Northeast 359 413 11,900 -250 Descending Atlanta Center
Sun 11:06:33 AM 33.3936 -84.7156 56° Northeast 354 407 12,000 50 Climbing Atlanta Center
Sun 11:07:33 AM 33.4464 -84.6389 50° Northeast 307 353 12,000  Level Atlanta Center
Sun 11:08:33 AM 33.4967 -84.5769 46° Northeast 261 300 12,000 -550 Level Atlanta Center
Sun 11:09:33 AM 33.5367 -84.5047 56° Northeast 255 293 10,900 -1,244 Descending Atlanta Center
Sun 11:11:17 AM 33.5333 -84.3500 91° East 260 299 8,600 -1,595 Descending Atlanta TRACON
Sun 11:12:11 AM 33.5333 -84.2667 90° East 262 302 6,700 -1,600 Descending Atlanta TRACON
Sun 11:13:17 AM 33.5500 -84.1833 76° East 240 276 5,400 -1,143 Descending Atlanta TRACON
Sun 11:14:17 AM 33.6000 -84.1833 360° North 189 217 4,300 -850 Descending Atlanta TRACON
Sun 11:15:17 AM 33.6167 -84.2500 287° West 177 204 3,700 -650 Descending Atlanta TRACON
Sun 11:16:17 AM 33.6333 -84.3000 292° West 158 182 3,000 -800 Descending Atlanta TRACON
Sun 11:17:17 AM 33.6333 -84.3500 270° West 165 190 2,100 -850 Descending Atlanta TRACON
Sun 11:18:17 AM 33.6333 -84.4000 270° West 141 162 1,300 -800 Descending Atlanta TRACON

Login

Don't have an account? Register now (free) for customized features, flight alerts, and more!